createdAt,value
2022-10-04T00:00:55.395Z,97269.25
2022-10-04T00:04:06.154Z,97268.47
2022-10-04T00:06:35.149Z,97263.09
2022-10-04T00:09:10.700Z,97265.75
2022-10-04T00:11:44.191Z,97269.22
2022-10-04T00:14:19.997Z,97272.75
2022-10-04T00:16:48.591Z,97264.13
2022-10-04T00:19:15.875Z,97271.66
2022-10-04T00:21:58.634Z,97277.19
2022-10-04T00:24:41.112Z,97275.28
2022-10-04T00:27:27.029Z,97279.19
2022-10-04T00:30:03.315Z,97278.34
2022-10-04T00:32:42.570Z,97281.13
2022-10-04T00:35:28.190Z,97288.88
2022-10-04T00:38:08.147Z,97288.88
2022-10-04T00:40:43.686Z,97291.38
2022-10-04T00:43:19.905Z,97286.94
2022-10-04T00:45:49.826Z,97276.69
2022-10-04T00:48:37.752Z,97278.06
2022-10-04T00:51:15.994Z,97276.97
2022-10-04T00:54:09.920Z,97274.91
2022-10-04T00:56:45.981Z,97267.84
2022-10-04T00:59:24.031Z,97268.94
2022-10-04T01:02:01.242Z,97268.81
2022-10-04T01:04:42.147Z,97266.31
2022-10-04T01:07:11.937Z,97274.09
2022-10-04T01:09:48.741Z,97275.88
2022-10-04T01:12:33.674Z,97270.91
2022-10-04T01:15:05.972Z,97274.75
2022-10-04T01:17:33.406Z,97268.94
2022-10-04T01:20:01.016Z,97267.28
2022-10-04T01:22:44.886Z,97262.31
2022-10-04T01:25:51.418Z,97279.09
2022-10-04T01:28:18.785Z,97269.13
2022-10-04T01:30:46.208Z,97272.03
2022-10-04T01:33:13.852Z,97260.00
2022-10-04T01:35:41.251Z,97275.91
2022-10-04T01:38:09.079Z,97278.16
2022-10-04T01:40:51.788Z,97272.47
2022-10-04T01:43:28.233Z,97277.06
2022-10-04T01:46:02.607Z,97283.00
2022-10-04T01:48:36.541Z,97273.44
2022-10-04T01:51:44.832Z,97277.31
2022-10-04T01:54:31.912Z,97284.69
2022-10-04T01:57:07.514Z,97286.47
2022-10-04T02:00:14.317Z,97292.56
2022-10-04T02:03:24.157Z,97291.72
2022-10-04T02:37:40.662Z,97302.25
2022-10-04T02:48:07.550Z,97305.03
2022-10-04T04:11:34.026Z,97354.03
2022-10-04T04:14:19.117Z,97364.56
2022-10-04T04:17:21.236Z,97370.28
2022-10-04T04:19:48.914Z,97379.81
2022-10-04T04:22:18.585Z,97384.84
2022-10-04T04:43:31.293Z,97400.00
2022-10-04T04:46:22.692Z,97387.53
2022-10-04T04:48:49.045Z,97387.66
2022-10-04T04:51:24.967Z,97376.88
2022-10-04T04:53:54.774Z,97372.97
2022-10-04T05:07:45.568Z,97391.56
2022-10-04T05:10:35.130Z,97391.69
2022-10-04T05:13:04.636Z,97387.94
2022-10-04T05:15:36.402Z,97392.91
2022-10-04T05:18:17.941Z,97402.63
2022-10-04T05:20:50.768Z,97408.56
2022-10-04T05:23:17.907Z,97407.47
2022-10-04T05:25:45.428Z,97415.50
2022-10-04T05:28:15.511Z,97416.75
2022-10-04T05:31:09.517Z,97429.22
2022-10-04T05:33:52.231Z,97432.41
2022-10-04T05:36:34.424Z,97430.59
2022-10-04T05:39:23.580Z,97429.81
2022-10-04T05:42:05.983Z,97431.59
2022-10-04T05:44:37.780Z,97430.34
2022-10-04T05:47:07.868Z,97435.03
2022-10-04T05:49:46.825Z,97441.41
2022-10-04T05:52:17.492Z,97440.16
2022-10-04T05:54:44.586Z,97443.31
2022-10-04T05:57:33.530Z,97446.25
2022-10-04T06:00:08.013Z,97453.34
2022-10-04T06:02:48.181Z,97425.59
2022-10-04T06:05:25.679Z,97448.06
2022-10-04T06:08:14.447Z,97453.06
2022-10-04T06:11:04.388Z,97448.75
2022-10-04T06:13:56.801Z,97455.47
2022-10-04T06:16:45.300Z,97465.13
2022-10-04T06:19:42.653Z,97457.72
2022-10-04T06:22:19.382Z,97472.00
2022-10-04T06:24:55.245Z,97461.28
2022-10-04T06:27:22.510Z,97482.31
2022-10-04T06:30:01.302Z,97469.97
2022-10-04T06:32:44.556Z,97482.19
2022-10-04T06:35:24.604Z,97486.09
2022-10-04T06:37:57.874Z,97472.41
2022-10-04T06:40:31.058Z,97484.31
2022-10-04T06:43:27.508Z,97488.41
2022-10-04T06:46:21.173Z,97490.47
2022-10-04T07:38:32.530Z,97553.00
2022-10-04T07:41:13.664Z,97552.31
2022-10-04T07:44:05.399Z,97557.69
2022-10-04T07:47:14.927Z,97551.19
2022-10-04T07:49:41.936Z,97542.84
2022-10-04T07:52:26.167Z,97546.84
2022-10-04T07:55:15.227Z,97552.84
2022-10-04T07:57:54.992Z,97550.94
2022-10-04T08:00:50.883Z,97551.72
2022-10-04T08:03:39.881Z,97561.41
2022-10-04T08:06:14.612Z,97559.44
2022-10-04T08:08:58.414Z,97563.91
2022-10-04T08:11:54.488Z,97557.50
2022-10-04T08:14:59.323Z,97562.16
2022-10-04T08:17:28.999Z,97568.81
2022-10-04T08:20:24.465Z,97568.78
2022-10-04T08:23:05.080Z,97563.91
2022-10-04T08:26:20.153Z,97567.50
2022-10-04T08:29:28.074Z,97567.94
2022-10-04T08:32:20.706Z,97571.88
2022-10-04T08:35:13.496Z,97562.31
2022-10-04T08:37:59.457Z,97558.59
2022-10-04T08:40:57.029Z,97567.00
2022-10-04T08:43:43.404Z,97567.91
2022-10-04T08:46:44.373Z,97561.84
2022-10-04T08:49:46.536Z,97563.00
2022-10-04T08:52:19.357Z,97572.34
2022-10-04T08:55:08.130Z,97572.41
2022-10-04T08:57:57.525Z,97576.84
2022-10-04T09:00:58.396Z,97578.38
2022-10-04T09:03:35.718Z,97573.47
2022-10-04T09:06:32.743Z,97577.53
2022-10-04T09:09:37.306Z,97577.34
2022-10-04T09:12:34.980Z,97578.19
2022-10-04T09:15:17.380Z,97576.38
2022-10-04T09:18:21.309Z,97582.16
2022-10-04T09:20:54.595Z,97586.13
2022-10-04T09:23:55.791Z,97590.06
2022-10-04T09:26:34.464Z,97582.03
2022-10-04T09:29:16.674Z,97583.53
2022-10-04T09:32:30.697Z,97591.00
2022-10-04T09:35:08.550Z,97594.06
2022-10-04T09:37:56.953Z,97582.16
2022-10-04T09:40:49.181Z,97587.16
2022-10-04T09:43:37.527Z,97596.44
2022-10-04T09:46:18.540Z,97591.63
2022-10-04T09:49:37.097Z,97595.44
2022-10-04T09:52:40.399Z,97596.09
2022-10-04T09:55:13.646Z,97598.94
2022-10-04T09:58:19.651Z,97589.47
2022-10-04T10:00:59.487Z,97591.44
2022-10-04T10:03:42.390Z,97596.75
2022-10-04T10:06:30.150Z,97587.13
2022-10-04T10:09:10.881Z,97593.34
2022-10-04T10:12:22.247Z,97588.97
2022-10-04T10:15:01.710Z,97585.00
2022-10-04T10:17:44.492Z,97575.88
2022-10-04T10:20:23.313Z,97583.66
2022-10-04T10:23:18.232Z,97578.88
2022-10-04T10:26:12.849Z,97586.34
2022-10-04T10:28:59.655Z,97586.84
2022-10-04T10:31:45.747Z,97578.84
2022-10-04T10:34:21.694Z,97578.03
2022-10-04T10:36:48.548Z,97581.03
2022-10-04T10:39:39.575Z,97572.22
2022-10-04T10:42:19.816Z,97584.69
2022-10-04T10:44:47.656Z,97580.34
2022-10-04T10:47:41.169Z,97575.84
2022-10-04T10:51:01.068Z,97581.19
2022-10-04T10:53:34.716Z,97590.66
2022-10-04T10:56:19.823Z,97586.50
2022-10-04T10:59:30.332Z,97585.03
2022-10-04T11:02:15.604Z,97589.84
2022-10-04T11:05:17.005Z,97586.00
2022-10-04T11:08:32.242Z,97570.19
2022-10-04T11:11:24.064Z,97582.81
2022-10-04T11:14:13.106Z,97589.47
2022-10-04T11:17:13.148Z,97587.78
2022-10-04T11:20:03.684Z,97581.00
2022-10-04T11:23:00.451Z,97579.50
2022-10-04T11:25:44.288Z,97590.47
2022-10-04T11:28:47.284Z,97592.81
2022-10-04T11:31:26.670Z,97593.16
2022-10-04T11:33:56.548Z,97588.16
2022-10-04T11:37:02.065Z,97590.16
2022-10-04T11:40:18.213Z,97593.81
2022-10-04T11:43:16.316Z,97595.63
2022-10-04T11:46:06.209Z,97591.81
2022-10-04T11:49:08.663Z,97592.16
2022-10-04T11:52:08.993Z,97592.47
2022-10-04T11:55:09.716Z,97597.13
2022-10-04T11:57:45.883Z,97594.81
2022-10-04T12:00:18.641Z,97590.47
2022-10-04T12:03:19.809Z,97583.66
2022-10-04T12:06:05.630Z,97577.44
2022-10-04T12:08:38.272Z,97578.91
2022-10-04T12:12:11.877Z,97582.16
2022-10-04T12:15:00.423Z,97582.97
2022-10-04T12:17:36.556Z,97577.13
2022-10-04T12:20:03.679Z,97581.81
2022-10-04T12:22:47.046Z,97590.31
2022-10-04T12:25:42.793Z,97592.00
2022-10-04T12:28:43.529Z,97585.88
2022-10-04T12:31:43.362Z,97587.28
2022-10-04T12:34:17.058Z,97585.59
2022-10-04T12:37:13.990Z,97574.09
2022-10-04T12:40:19.010Z,97580.47
2022-10-04T12:43:10.878Z,97577.97
2022-10-04T12:45:57.503Z,97586.84
2022-10-04T12:49:01.517Z,97583.59
2022-10-04T12:52:01.624Z,97575.41
2022-10-04T12:54:36.941Z,97573.78
2022-10-04T12:57:22.416Z,97586.63
2022-10-04T13:00:18.866Z,97592.25
2022-10-04T13:03:19.298Z,97583.41
2022-10-04T13:06:08.018Z,97586.41
2022-10-04T13:08:53.291Z,97581.38
2022-10-04T13:11:27.758Z,97582.75
2022-10-04T13:14:33.792Z,97581.09
2022-10-04T13:17:35.134Z,97596.50
2022-10-04T13:20:20.454Z,97587.75
2022-10-04T13:22:59.642Z,97596.25
2022-10-04T13:26:03.333Z,97588.78
2022-10-04T13:28:37.851Z,97593.16
2022-10-04T13:31:34.964Z,97580.88
2022-10-04T13:34:08.149Z,97585.16
2022-10-04T13:36:52.191Z,97583.50
2022-10-04T13:39:44.045Z,97584.81
2022-10-04T13:42:13.726Z,97588.16
2022-10-04T13:44:55.339Z,97581.38
2022-10-04T13:47:59.662Z,97585.84
2022-10-04T13:50:45.005Z,97605.75
2022-10-04T13:53:58.611Z,97620.38
2022-10-04T13:57:10.820Z,97615.91
2022-10-04T13:59:38.000Z,97616.09
2022-10-04T14:02:35.888Z,97625.56
2022-10-04T14:05:35.968Z,97634.41
2022-10-04T14:08:43.571Z,97628.72
2022-10-04T14:11:52.013Z,97644.84
2022-10-04T14:14:23.398Z,97641.56
2022-10-04T14:17:12.406Z,97635.25
2022-10-04T14:20:11.034Z,97634.13
2022-10-04T14:23:16.130Z,97635.16
2022-10-04T14:26:22.758Z,97632.06
2022-10-04T14:29:24.797Z,97629.66
2022-10-04T14:32:20.696Z,97629.13
2022-10-04T14:34:57.503Z,97638.59
2022-10-04T14:37:49.641Z,97644.84
2022-10-04T14:40:54.108Z,97651.16
2022-10-04T14:43:45.557Z,97662.28
2022-10-04T14:46:34.991Z,97667.75
2022-10-04T14:49:23.387Z,97685.22
2022-10-04T14:52:21.129Z,97689.66
2022-10-04T14:54:54.215Z,97705.78
2022-10-04T14:58:02.303Z,97711.47
2022-10-04T15:00:55.972Z,97713.16
2022-10-04T15:03:50.527Z,97713.94
2022-10-04T15:06:32.063Z,97718.75
2022-10-04T15:09:33.793Z,97721.69
2022-10-04T15:12:58.460Z,97719.19
2022-10-04T15:15:20.510Z,97725.91
2022-10-04T15:17:47.900Z,97728.41
2022-10-04T15:20:18.595Z,97727.72
2022-10-04T15:23:12.998Z,97727.78
2022-10-04T15:25:42.511Z,97734.72
2022-10-04T15:28:34.813Z,97732.78
2022-10-04T15:31:10.079Z,97740.16
2022-10-04T15:34:02.488Z,97739.72
2022-10-04T15:37:14.690Z,97738.59
2022-10-04T15:40:10.377Z,97734.19
2022-10-04T15:42:38.673Z,97733.47
2022-10-04T15:45:17.531Z,97737.38
2022-10-04T15:48:03.310Z,97751.53
2022-10-04T15:51:13.053Z,97747.25
2022-10-04T15:54:13.183Z,97757.81
2022-10-04T15:56:50.021Z,97756.13
2022-10-04T15:59:23.605Z,97760.28
2022-10-04T16:02:20.997Z,97758.06
2022-10-04T16:05:15.306Z,97763.03
2022-10-04T16:08:11.160Z,97775.28
2022-10-04T16:11:19.768Z,97775.81
2022-10-04T16:13:55.022Z,97781.22
2022-10-04T16:16:57.704Z,97779.94
2022-10-04T16:19:40.512Z,97788.66
2022-10-04T16:22:11.475Z,97787.53
2022-10-04T16:24:40.467Z,97790.66
2022-10-04T16:27:35.274Z,97786.94
2022-10-04T16:30:28.385Z,97799.81
2022-10-04T16:33:13.410Z,97794.06
2022-10-04T16:35:45.859Z,97788.63
2022-10-04T16:38:12.947Z,97813.56
2022-10-04T16:40:51.973Z,97815.50
2022-10-04T16:43:19.105Z,97812.28
2022-10-04T16:46:17.226Z,97817.22
2022-10-04T16:48:56.532Z,97819.94
2022-10-04T16:52:04.458Z,97830.53
2022-10-04T16:55:21.205Z,97828.53
2022-10-04T16:58:26.167Z,97834.47
2022-10-04T17:01:24.745Z,97844.22
2022-10-04T17:04:07.891Z,97844.44
2022-10-04T17:07:00.623Z,97851.31
2022-10-04T17:09:38.385Z,97851.81
2022-10-04T17:12:47.135Z,97851.34
2022-10-04T17:15:36.250Z,97864.75
2022-10-04T17:18:20.244Z,97868.09
2022-10-04T17:21:01.636Z,97864.53
2022-10-04T17:23:32.340Z,97870.47
2022-10-04T17:26:15.067Z,97866.88
2022-10-04T17:32:32.254Z,97876.22
2022-10-04T17:35:10.668Z,97881.50
2022-10-04T17:38:10.977Z,97878.03
2022-10-04T17:40:53.377Z,97896.69
2022-10-04T17:43:44.362Z,97887.28
2022-10-04T17:46:32.161Z,97896.59
2022-10-04T17:49:29.664Z,97910.97
2022-10-04T17:52:23.238Z,97919.31
2022-10-04T17:55:16.586Z,97921.34
2022-10-04T17:57:56.692Z,97921.69
2022-10-04T18:00:27.270Z,97950.78
2022-10-04T18:03:10.438Z,97938.25
2022-10-04T18:05:46.816Z,97938.25
2022-10-04T18:08:24.007Z,97943.97
2022-10-04T18:10:57.797Z,97947.81
2022-10-04T18:13:39.137Z,97947.31
2022-10-04T18:16:31.061Z,97952.47
2022-10-04T18:19:22.194Z,97952.34
2022-10-04T18:21:53.194Z,97962.63
2022-10-04T18:24:22.189Z,97959.28
2022-10-04T18:27:01.276Z,97963.69
2022-10-04T18:29:44.916Z,97959.53
2022-10-04T18:32:28.159Z,97962.88
2022-10-04T18:34:57.300Z,97964.66
2022-10-04T18:37:35.327Z,97966.06
2022-10-04T18:40:17.606Z,97968.38
2022-10-04T18:42:56.160Z,97969.31
2022-10-04T18:45:28.804Z,97980.94
2022-10-04T18:47:59.757Z,97972.09
2022-10-04T18:50:48.022Z,97979.63
2022-10-04T18:53:44.778Z,97980.81
2022-10-04T18:56:14.026Z,97984.16
2022-10-04T18:59:18.369Z,97984.63
2022-10-04T19:02:23.026Z,97995.38
2022-10-04T19:04:59.281Z,97996.09
2022-10-04T19:07:41.367Z,97993.72
2022-10-04T19:10:15.739Z,97995.03
2022-10-04T19:13:04.635Z,97986.44
2022-10-04T19:16:03.487Z,97998.03
2022-10-04T19:18:59.592Z,97995.28
2022-10-04T19:21:56.259Z,98001.16
2022-10-04T19:24:45.855Z,98006.41
2022-10-04T19:27:36.982Z,98007.00
2022-10-04T19:30:13.333Z,98011.09
2022-10-04T19:32:44.172Z,98015.16
2022-10-04T19:35:35.743Z,98003.56
2022-10-04T19:38:14.973Z,98012.28
2022-10-04T19:40:49.774Z,98015.53
2022-10-04T19:43:59.031Z,98017.44
2022-10-04T19:47:01.447Z,98021.88
2022-10-04T19:50:07.448Z,98019.34
2022-10-04T19:52:45.042Z,98021.03
2022-10-04T19:55:31.116Z,98023.41
2022-10-04T19:58:49.206Z,98032.75
2022-10-04T20:01:23.644Z,98034.41
2022-10-04T20:04:12.737Z,98039.88
2022-10-04T20:06:53.816Z,98038.31
2022-10-04T20:09:38.185Z,98035.69
2022-10-04T20:12:06.321Z,98040.56
2022-10-04T20:14:33.671Z,98042.59
2022-10-04T20:17:05.961Z,98035.75
2022-10-04T20:19:41.902Z,98032.88
2022-10-04T20:22:10.520Z,98041.81
2022-10-04T20:24:37.623Z,98045.25
2022-10-04T20:27:12.277Z,98056.13
2022-10-04T20:29:39.640Z,98053.63
2022-10-04T20:32:25.475Z,98053.34
2022-10-04T20:34:53.814Z,98057.69
2022-10-04T20:37:22.049Z,98058.78
2022-10-04T20:39:56.488Z,98055.84
2022-10-04T20:42:32.316Z,98062.28
2022-10-04T20:45:02.439Z,98059.88
2022-10-04T20:47:35.530Z,98058.66
2022-10-04T20:50:03.956Z,98060.44
2022-10-04T20:52:34.507Z,98060.56
2022-10-04T20:55:02.163Z,98059.53
2022-10-04T20:57:36.171Z,98074.59
2022-10-04T21:00:06.606Z,98065.00
2022-10-04T21:02:34.708Z,98063.78
2022-10-04T21:05:16.708Z,98074.72
2022-10-04T21:07:44.175Z,98080.19
2022-10-04T21:10:20.347Z,98071.38
2022-10-04T21:12:49.514Z,98086.19
2022-10-04T21:15:16.875Z,98081.28
2022-10-04T21:17:58.580Z,98082.75
2022-10-04T21:20:48.820Z,98081.78
2022-10-04T21:23:34.052Z,98080.94
2022-10-04T21:26:23.183Z,98085.69
2022-10-04T21:28:57.837Z,98090.34
2022-10-04T21:31:25.280Z,98089.38
2022-10-04T21:33:52.456Z,98095.03
2022-10-04T21:36:19.765Z,98088.13
2022-10-04T21:38:47.335Z,98098.41
2022-10-04T21:41:14.597Z,98103.88
2022-10-04T21:43:41.634Z,98102.91
2022-10-04T21:46:09.101Z,98102.91
2022-10-04T21:48:37.213Z,98106.50
2022-10-04T21:51:04.452Z,98101.03
2022-10-04T21:53:32.028Z,98099.97
2022-10-04T21:56:00.382Z,98101.97
2022-10-04T21:58:28.131Z,98098.69
2022-10-04T22:00:56.039Z,98099.97
2022-10-04T22:03:23.638Z,98105.59
2022-10-04T22:05:50.985Z,98113.16
2022-10-04T22:08:18.008Z,98110.84
2022-10-04T22:10:45.966Z,98113.47
2022-10-04T22:13:13.154Z,98118.81
2022-10-04T22:15:40.371Z,98122.56
2022-10-04T22:18:07.548Z,98115.84
2022-10-04T22:20:35.845Z,98115.22
2022-10-04T22:23:04.959Z,98125.47
2022-10-04T22:25:32.375Z,98127.56
2022-10-04T22:28:00.610Z,98129.22
2022-10-04T22:30:30.252Z,98125.06
2022-10-04T22:33:02.089Z,98123.56
2022-10-04T22:35:32.048Z,98126.09
2022-10-04T22:38:00.693Z,98133.19
2022-10-04T22:40:29.252Z,98129.84
2022-10-04T22:42:59.391Z,98128.38
2022-10-04T22:45:29.694Z,98121.00
2022-10-04T22:47:59.644Z,98130.75
2022-10-04T22:50:33.696Z,98137.56
2022-10-04T22:53:15.172Z,98137.88
2022-10-04T22:55:42.642Z,98125.06
2022-10-04T22:58:15.012Z,98132.56
2022-10-04T23:00:44.246Z,98137.81
2022-10-04T23:03:39.125Z,98138.94
2022-10-04T23:06:12.876Z,98126.16
2022-10-04T23:08:41.168Z,98132.97
2022-10-04T23:11:08.925Z,98139.53
2022-10-04T23:13:36.586Z,98135.22
2022-10-04T23:16:22.401Z,98134.50
2022-10-04T23:18:50.082Z,98136.19
2022-10-04T23:21:24.476Z,98145.53
2022-10-04T23:23:53.558Z,98130.81
2022-10-04T23:26:34.987Z,98130.94
2022-10-04T23:29:01.989Z,98129.47
2022-10-04T23:31:29.627Z,98136.56
2022-10-04T23:33:57.454Z,98129.66
2022-10-04T23:36:24.623Z,98139.56
2022-10-04T23:39:00.013Z,98136.09
2022-10-04T23:41:27.409Z,98147.16
2022-10-04T23:43:54.874Z,98136.22
2022-10-04T23:46:24.605Z,98141.09
2022-10-04T23:48:51.862Z,98137.81
2022-10-04T23:51:20.613Z,98135.28
2022-10-04T23:53:50.451Z,98135.28
2022-10-04T23:56:22.718Z,98129.13
2022-10-04T23:58:51.517Z,98130.16
